CheckWX is a tool to help pilots better visualize weather data.  It is not intended as a substitute for an official pre-flight weather briefing.

06:58:29 UTC

LIBD TAF
Bari Karol Wojtyła Airport
Bari, Italy
TAF LIBD 190500Z 1906/2006 VRB05KT CAVOK BECMG 1908/1910 04012KT BECMG 1917/1919 VRB05KT

Jun-19@
06:00 UTC

Jun-19 @ 06:00 UTC

Jun-19@
08:00 UTC

Jun-19 @ 08:00 UTC

TAF LIBD 190500Z 1906/2006 VRB05KT CAVOK
Wind
  • Variable at 5 KTS
Conditions
No significant weather
Cloud Levels
  • No significant clouds

Jun-19@
08:00 UTC

Jun-19 @ 08:00 UTC

Jun-19@
17:00 UTC

Jun-19 @ 17:00 UTC

BECMG 1908/1910 04012KT

Becoming

Becoming Conditions expected by Wed, Jun 19, 2019 @ 10:00 UTC

Wind
  • 040° at 12 KTS
Conditions
No significant weather
Cloud Levels
  • No significant clouds

Jun-19@
17:00 UTC

Jun-19 @ 17:00 UTC

Jun-20@
06:00 UTC

Jun-20 @ 06:00 UTC

BECMG 1917/1919 VRB05KT

Becoming

Becoming Conditions expected by Wed, Jun 19, 2019 @ 19:00 UTC

Wind
  • Variable at 5 KTS
Conditions
No significant weather
Cloud Levels
  • No significant clouds